KCXE

Details ICAO KCXE
Name CHASE CITY MUNI
Region United States
Timezone America/New_York (UTC-4.0)
Plans Departing 1
Arriving 3
Stats Elevation 503 ft / 153 m (AMSL)
Location 36.788323° -78.501548°
Runways 1
Magnetic Variation 9.543° W
Sunrise 2018-05-23 10:02:14 UTC / 2018-05-23 06:02:14 Local
Sunset 2018-05-24 00:22:10 UTC / 2018-05-23 20:22:10 Local
Advertisement - Login to hide

Runways

ID Width Length Bearing (true) Bearing (mag) Surface Threshold Offset Overrun Length
18 50 ft / 15 m 3,407 ft / 1,039 m 174.64° 184.18° Asphalt 0 ft / 0 m 0 ft / 0 m
36 50 ft / 15 m 3,407 ft / 1,039 m 354.64° 4.18° Asphalt 0 ft / 0 m 0 ft / 0 m

Map

Weather


0- 5 10 15 20 25 30 35+ Temperature / ° C

Clouds and Precipitation
Forecast for 2018-05-23 12:00 UTC. Updated 2 hours ago

Ground ~20,000 ft ~40,000 ft Winds

METAR

KCXE 231055Z AUTO 00000KT 10SM CLR 21/21 A3001 RMK AO1 T02100210

TAF

Not found

Frequencies

Unicom 122.90 MHz CTAF
Warning: Do not use this data for real-world aviation or navigation. No guarantee of current accuracy is given.